Share

Ridgway, IL (62979)

Harrisburg-Raleigh (KHSB) Elev 397 ft | 37.81 °N, 88.55 °W | Change Station
Active Advisory: Flood Warning

Current weather conditions updated 7 minutes ago

Clear
Clear
72 °F
Feels Like 72 °F
N
8
Wind Variable Wind from ENE
Sunrise 6:12 AM
Sunset 7:32 PM
Moon Waning Gibbous

Today is forecast to be nearly the same temperature as yesterday.

Pressure 30.26 in
Visibility 10.0 miles
Clouds Clear
Dew Point 44 °F
Humidity 37%
Rainfall 0.00 in
Snow Depth Not available.
UV 10 out of 16
Pollen 10.40 out of 12
Air Quality Not available.
Flu Activity Local Activity
METAR KHSB 191755Z AUTO 07007KT 10SM CLR 22/07 A3026 RMK AO2 T02200066 10220 20105

More Conditions Fewer Conditions

Pressure 30.26 in
Visibility 10.0 miles
Clouds Clear
Dew Point 44 °F
Humidity 37%
Rainfall 0.00 in
Snow Depth Not available.
UV 10 out of 16
Pollen 10.40 out of 12
Air Quality Not available.
Flu Activity Local Activity
METAR KHSB 191755Z AUTO 07007KT 10SM CLR 22/07 A3026 RMK AO2 T02200066 10220 20105

More Conditions Fewer Conditions

10-Day Weather Forecast

Almanac

Astronomy

Apr. 19, 2014 Rise Set
Actual Time 6:12 AM CDT 7:32 PM CDT
Civil Twilight 5:45 AM CDT 7:59 PM CDT
Nautical Twilight 5:12 AM CDT 8:32 PM CDT
Astronomical Twilight 4:38 AM CDT 9:07 PM CDT
Moon No Moon Rise 9:33 AM CDT
Length of Visible Light 14h 14m
Length of Day
13h 20m
Tomorrow will be 2m 17s longer.
Waning Gibbous, 78% of the Moon is Illuminated
Today
Waning Gibbous
Apr 22
Last Quarter
Apr 29
New
May 6
First Quarter
May 14
Full

Today's Extremes

State Highs State Lows

Community

  • Piriapolis
    Piriapolis
  • A Glorious Morning
    A Glorious Morning
  • Tender Rays Of Hope
    Tender Rays Of Hope
  • Bleeding Hearts
    Bleeding Hearts
  • Sunset Silhouettes
    Sunset Silhouettes

WunderPhotos

Upload Photos

1,702,816 photos uploaded!

WunderBlogs® & News

Nearby

Snow Depth

Station Depth Elevation
No new snow has been reported.

Coastal Water Temperatures

Place Temperature
No Stations Reporting

Earthquake Activity

City Distance Mag. Time & Date
No recent earthquake activity has been reported nearby.
Minimum magnitude displayed is 2.5.

Nearby Weather Stations

Station Location Temp. Heat Index Dew Point Humidity Wind Precip. Elev Updated Type
Harrisburg, IL 74.6 °F 77 °F 40 °F 29% NNE  at  6.0 mph 0.00 in / hr 400 ft 1:00 PM CDT Normal
Mt. Vernon, IN 74.4 °F 77 °F 54 °F 49% ESE  at  4.6 mph 0.00 in / hr 389 ft 1:02 PM CDT Rapid Fire

Show More Stations Show Fewer Stations

What do you think?

We're not finished. Please let us know what you like, what you don't like, and what you are still missing.